sensor_id;sensor_type;location;lat;lon;timestamp;pressure;altitude;pressure_sealevel;temperature;humidity
25855;BME280;13680;49.936;11.344;2023-02-23T00:00:27;96320.09;;;9.22;81.12
25855;BME280;13680;49.936;11.344;2023-02-23T00:02:54;96325.00;;;9.20;81.96
25855;BME280;13680;49.936;11.344;2023-02-23T00:05:23;96321.69;;;9.23;81.62
25855;BME280;13680;49.936;11.344;2023-02-23T00:07:48;96321.69;;;9.23;81.49
25855;BME280;13680;49.936;11.344;2023-02-23T00:10:14;96323.09;;;9.21;81.71
25855;BME280;13680;49.936;11.344;2023-02-23T00:12:40;96325.31;;;9.19;82.06
25855;BME280;13680;49.936;11.344;2023-02-23T00:15:07;96317.63;;;9.12;81.77
25855;BME280;13680;49.936;11.344;2023-02-23T00:17:33;96314.06;;;9.16;81.72
25855;BME280;13680;49.936;11.344;2023-02-23T00:20:04;96318.25;;;9.09;82.60
25855;BME280;13680;49.936;11.344;2023-02-23T00:22:39;96315.25;;;9.10;82.37
25855;BME280;13680;49.936;11.344;2023-02-23T00:25:06;96314.19;;;9.11;82.73
25855;BME280;13680;49.936;11.344;2023-02-23T00:27:33;96308.00;;;9.11;82.92
25855;BME280;13680;49.936;11.344;2023-02-23T00:29:58;96307.22;;;9.10;82.52
25855;BME280;13680;49.936;11.344;2023-02-23T00:32:23;96304.53;;;9.10;82.10
25855;BME280;13680;49.936;11.344;2023-02-23T00:34:49;96307.81;;;9.07;82.22
25855;BME280;13680;49.936;11.344;2023-02-23T00:37:15;96304.84;;;9.09;81.91
25855;BME280;13680;49.936;11.344;2023-02-23T00:39:41;96305.25;;;9.02;82.53
25855;BME280;13680;49.936;11.344;2023-02-23T00:42:06;96301.56;;;8.98;82.62
25855;BME280;13680;49.936;11.344;2023-02-23T00:44:32;96317.84;;;9.01;81.90
25855;BME280;13680;49.936;11.344;2023-02-23T00:46:58;96307.03;;;8.93;82.02
25855;BME280;13680;49.936;11.344;2023-02-23T00:49:24;96306.44;;;8.96;82.78
25855;BME280;13680;49.936;11.344;2023-02-23T00:51:50;96312.91;;;8.95;82.21
25855;BME280;13680;49.936;11.344;2023-02-23T00:54:20;96309.44;;;8.94;82.25
25855;BME280;13680;49.936;11.344;2023-02-23T00:56:46;96308.16;;;8.92;82.68
25855;BME280;13680;49.936;11.344;2023-02-23T00:59:12;96307.03;;;8.93;82.25
25855;BME280;13680;49.936;11.344;2023-02-23T01:01:39;96310.63;;;8.88;82.96
25855;BME280;13680;49.936;11.344;2023-02-23T01:04:08;96309.81;;;8.88;82.70
25855;BME280;13680;49.936;11.344;2023-02-23T01:06:34;96312.81;;;8.86;82.39
25855;BME280;13680;49.936;11.344;2023-02-23T01:09:06;96315.78;;;8.84;82.92
25855;BME280;13680;49.936;11.344;2023-02-23T01:11:32;96320.94;;;8.81;82.77
25855;BME280;13680;49.936;11.344;2023-02-23T01:13:59;96314.00;;;8.80;82.45
25855;BME280;13680;49.936;11.344;2023-02-23T01:16:30;96320.44;;;8.79;82.65
25855;BME280;13680;49.936;11.344;2023-02-23T01:18:58;96310.31;;;8.76;82.62
25855;BME280;13680;49.936;11.344;2023-02-23T01:21:28;96306.34;;;8.73;82.13
25855;BME280;13680;49.936;11.344;2023-02-23T01:23:54;96308.25;;;8.73;82.07
25855;BME280;13680;49.936;11.344;2023-02-23T01:26:26;96306.66;;;8.72;82.28
25855;BME280;13680;49.936;11.344;2023-02-23T01:28:54;96300.31;;;8.67;82.83
25855;BME280;13680;49.936;11.344;2023-02-23T01:31:21;96297.34;;;8.69;82.79
25855;BME280;13680;49.936;11.344;2023-02-23T01:33:46;96300.22;;;8.73;82.43
25855;BME280;13680;49.936;11.344;2023-02-23T01:36:12;96297.34;;;8.69;82.51
25855;BME280;13680;49.936;11.344;2023-02-23T01:38:38;96290.69;;;8.66;82.30
25855;BME280;13680;49.936;11.344;2023-02-23T01:41:04;96303.06;;;8.62;82.60
25855;BME280;13680;49.936;11.344;2023-02-23T01:43:31;96294.25;;;8.62;82.46
25855;BME280;13680;49.936;11.344;2023-02-23T01:45:57;96300.69;;;8.61;82.70
25855;BME280;13680;49.936;11.344;2023-02-23T01:48:38;96296.13;;;8.61;82.31
25855;BME280;13680;49.936;11.344;2023-02-23T01:51:11;96298.00;;;8.61;82.24
25855;BME280;13680;49.936;11.344;2023-02-23T01:53:47;96298.63;;;8.58;82.79
25855;BME280;13680;49.936;11.344;2023-02-23T01:56:22;96291.34;;;8.58;83.05
25855;BME280;13680;49.936;11.344;2023-02-23T01:58:51;96295.72;;;8.54;83.21
25855;BME280;13680;49.936;11.344;2023-02-23T02:01:19;96299.50;;;8.53;82.65
25855;BME280;13680;49.936;11.344;2023-02-23T02:03:49;96291.56;;;8.48;82.53
25855;BME280;13680;49.936;11.344;2023-02-23T02:06:18;96285.19;;;8.44;82.83
25855;BME280;13680;49.936;11.344;2023-02-23T02:08:48;96285.72;;;8.46;83.14
25855;BME280;13680;49.936;11.344;2023-02-23T02:11:19;96282.50;;;8.44;82.79
25855;BME280;13680;49.936;11.344;2023-02-23T02:14:16;96279.81;;;8.44;82.66
25855;BME280;13680;49.936;11.344;2023-02-23T02:20:20;96284.78;;;8.36;82.93
25855;BME280;13680;49.936;11.344;2023-02-23T02:25:43;96277.53;;;8.37;82.95
25855;BME280;13680;49.936;11.344;2023-02-23T02:28:37;96291.72;;;8.38;82.90
25855;BME280;13680;49.936;11.344;2023-02-23T02:41:51;96298.47;;;8.35;82.96
25855;BME280;13680;49.936;11.344;2023-02-23T02:46:58;96295.28;;;8.33;83.72
25855;BME280;13680;49.936;11.344;2023-02-23T02:49:31;96293.41;;;8.33;83.91
25855;BME280;13680;49.936;11.344;2023-02-23T02:52:16;96292.31;;;8.34;83.85
25855;BME280;13680;49.936;11.344;2023-02-23T02:54:48;96293.41;;;8.33;83.87
25855;BME280;13680;49.936;11.344;2023-02-23T02:57:19;96292.31;;;8.34;83.76
25855;BME280;13680;49.936;11.344;2023-02-23T02:59:48;96295.09;;;8.29;83.93
25855;BME280;13680;49.936;11.344;2023-02-23T03:02:35;96295.69;;;8.26;84.14
25855;BME280;13680;49.936;11.344;2023-02-23T03:05:24;96292.69;;;8.28;83.93
25855;BME280;13680;49.936;11.344;2023-02-23T03:08:14;96297.88;;;8.24;84.56
25855;BME280;13680;49.936;11.344;2023-02-23T03:11:12;96290.09;;;8.23;84.00
25855;BME280;13680;49.936;11.344;2023-02-23T03:14:07;96297.44;;;8.17;84.49
25855;BME280;13680;49.936;11.344;2023-02-23T03:20:22;96296.38;;;8.18;84.28
25855;BME280;13680;49.936;11.344;2023-02-23T03:26:20;96302.41;;;8.24;83.82
25855;BME280;13680;49.936;11.344;2023-02-23T03:29:21;96304.41;;;8.18;83.38
25855;BME280;13680;49.936;11.344;2023-02-23T03:32:15;96303.38;;;8.14;83.81
25855;BME280;13680;49.936;11.344;2023-02-23T03:35:07;96297.84;;;8.10;83.75
25855;BME280;13680;49.936;11.344;2023-02-23T03:38:16;96299.59;;;8.01;83.79
25855;BME280;13680;49.936;11.344;2023-02-23T03:41:05;96303.84;;;8.02;83.86
25855;BME280;13680;49.936;11.344;2023-02-23T03:43:55;96302.56;;;7.99;83.59
25855;BME280;13680;49.936;11.344;2023-02-23T03:46:42;96304.75;;;7.97;83.48
25855;BME280;13680;49.936;11.344;2023-02-23T03:49:33;96306.91;;;7.95;83.42
25855;BME280;13680;49.936;11.344;2023-02-23T03:52:20;96303.16;;;7.96;83.28
25855;BME280;13680;49.936;11.344;2023-02-23T03:55:11;96313.81;;;7.82;83.05
25855;BME280;13680;49.936;11.344;2023-02-23T03:57:58;96312.53;;;7.80;82.93
25855;BME280;13680;49.936;11.344;2023-02-23T04:00:45;96312.69;;;7.69;83.45
25855;BME280;13680;49.936;11.344;2023-02-23T04:03:33;96313.56;;;7.65;83.63
25855;BME280;13680;49.936;11.344;2023-02-23T04:06:21;96309.78;;;7.66;83.56
25855;BME280;13680;49.936;11.344;2023-02-23T04:09:06;96312.47;;;7.66;83.54
25855;BME280;13680;49.936;11.344;2023-02-23T04:14:47;96311.88;;;7.69;83.19
25855;BME280;13680;49.936;11.344;2023-02-23T04:17:15;96308.97;;;7.65;82.97
25855;BME280;13680;49.936;11.344;2023-02-23T04:19:51;96312.56;;;7.61;82.89
25855;BME280;13680;49.936;11.344;2023-02-23T04:22:17;96325.41;;;7.59;83.26
25855;BME280;13680;49.936;11.344;2023-02-23T04:24:42;96319.84;;;7.55;83.27
25855;BME280;13680;49.936;11.344;2023-02-23T04:27:08;96315.09;;;7.52;82.41
25855;BME280;13680;49.936;11.344;2023-02-23T04:29:33;96325.94;;;7.42;82.82
25855;BME280;13680;49.936;11.344;2023-02-23T04:31:58;96315.53;;;7.40;82.46
25855;BME280;13680;49.936;11.344;2023-02-23T04:34:23;96320.59;;;7.42;82.35
25855;BME280;13680;49.936;11.344;2023-02-23T04:36:49;96326.78;;;7.37;82.78
25855;BME280;13680;49.936;11.344;2023-02-23T04:39:16;96320.72;;;7.31;82.62
25855;BME280;13680;49.936;11.344;2023-02-23T04:41:41;96322.50;;;7.17;82.00
25855;BME280;13680;49.936;11.344;2023-02-23T04:44:06;96325.19;;;7.17;82.31
25855;BME280;13680;49.936;11.344;2023-02-23T04:46:32;96325.75;;;7.14;82.12
25855;BME280;13680;49.936;11.344;2023-02-23T04:48:57;96318.59;;;7.09;82.17
25855;BME280;13680;49.936;11.344;2023-02-23T04:51:22;96317.22;;;7.12;82.13
25855;BME280;13680;49.936;11.344;2023-02-23T04:53:48;96316.81;;;7.04;82.63
25855;BME280;13680;49.936;11.344;2023-02-23T04:56:13;96310.66;;;7.04;82.37
25855;BME280;13680;49.936;11.344;2023-02-23T04:58:39;96322.50;;;6.98;82.71
25855;BME280;13680;49.936;11.344;2023-02-23T05:01:06;96316.56;;;7.01;82.34
25855;BME280;13680;49.936;11.344;2023-02-23T05:03:33;96322.50;;;6.98;82.39
25855;BME280;13680;49.936;11.344;2023-02-23T05:05:59;96324.66;;;6.96;82.49
25855;BME280;13680;49.936;11.344;2023-02-23T05:08:24;96319.59;;;6.94;82.33
25855;BME280;13680;49.936;11.344;2023-02-23T05:10:50;96320.09;;;6.96;82.34
25855;BME280;13680;49.936;11.344;2023-02-23T05:13:15;96319.03;;;6.97;82.15
25855;BME280;13680;49.936;11.344;2023-02-23T05:15:40;96322.28;;;6.94;82.24
25855;BME280;13680;49.936;11.344;2023-02-23T05:18:06;96316.94;;;6.94;82.21
25855;BME280;13680;49.936;11.344;2023-02-23T05:20:32;96317.00;;;6.89;82.76
25855;BME280;13680;49.936;11.344;2023-02-23T05:22:57;96320.22;;;6.86;83.31
25855;BME280;13680;49.936;11.344;2023-02-23T05:25:23;96316.72;;;6.91;82.95
25855;BME280;13680;49.936;11.344;2023-02-23T05:27:48;96313.56;;;6.83;83.05
25855;BME280;13680;49.936;11.344;2023-02-23T05:30:14;96313.28;;;6.85;82.98
25855;BME280;13680;49.936;11.344;2023-02-23T05:32:39;96319.22;;;6.82;82.77
25855;BME280;13680;49.936;11.344;2023-02-23T05:35:05;96325.09;;;6.84;82.92
25855;BME280;13680;49.936;11.344;2023-02-23T05:37:31;96318.50;;;6.76;82.94
25855;BME280;13680;49.936;11.344;2023-02-23T05:39:57;96316.09;;;6.75;83.43
25855;BME280;13680;49.936;11.344;2023-02-23T05:42:22;96325.41;;;6.77;83.36
25855;BME280;13680;49.936;11.344;2023-02-23T05:44:47;96324.09;;;6.75;83.54
25855;BME280;13680;49.936;11.344;2023-02-23T05:47:13;96324.91;;;6.75;83.72
25855;BME280;13680;49.936;11.344;2023-02-23T05:49:38;96329.97;;;6.77;83.39
25855;BME280;13680;49.936;11.344;2023-02-23T05:52:04;96331.84;;;6.76;83.02
25855;BME280;13680;49.936;11.344;2023-02-23T05:54:29;96334.34;;;6.67;83.14
25855;BME280;13680;49.936;11.344;2023-02-23T05:56:54;96331.44;;;6.64;82.89
25855;BME280;13680;49.936;11.344;2023-02-23T05:59:19;96333.81;;;6.65;83.32
25855;BME280;13680;49.936;11.344;2023-02-23T06:01:45;96335.38;;;6.71;82.80
25855;BME280;13680;49.936;11.344;2023-02-23T06:04:10;96342.84;;;6.69;83.61
25855;BME280;13680;49.936;11.344;2023-02-23T06:06:35;96337.81;;;6.68;83.60
25855;BME280;13680;49.936;11.344;2023-02-23T06:09:02;96347.47;;;6.64;84.10
25855;BME280;13680;49.936;11.344;2023-02-23T06:11:28;96347.13;;;6.70;83.72
25855;BME280;13680;49.936;11.344;2023-02-23T06:13:53;96338.56;;;6.74;83.38
25855;BME280;13680;49.936;11.344;2023-02-23T06:16:19;96347.88;;;6.76;83.39
25855;BME280;13680;49.936;11.344;2023-02-23T06:18:45;96349.44;;;6.77;83.75
25855;BME280;13680;49.936;11.344;2023-02-23T06:21:10;96352.66;;;6.79;83.62
25855;BME280;13680;49.936;11.344;2023-02-23T06:23:35;96352.94;;;6.78;83.66
25855;BME280;13680;49.936;11.344;2023-02-23T06:26:01;96353.16;;;6.81;83.70
25855;BME280;13680;49.936;11.344;2023-02-23T06:28:27;96362.75;;;6.82;83.59
25855;BME280;13680;49.936;11.344;2023-02-23T06:30:54;96355.03;;;6.81;83.39
25855;BME280;13680;49.936;11.344;2023-02-23T06:33:20;96360.59;;;6.84;83.69
25855;BME280;13680;49.936;11.344;2023-02-23T06:35:45;96363.81;;;6.86;83.40
25855;BME280;13680;49.936;11.344;2023-02-23T06:38:11;96370.72;;;6.87;83.59
25855;BME280;13680;49.936;11.344;2023-02-23T06:40:37;96373.91;;;6.90;83.65
25855;BME280;13680;49.936;11.344;2023-02-23T06:43:03;96373.31;;;6.93;83.76
25855;BME280;13680;49.936;11.344;2023-02-23T06:45:29;96377.59;;;6.94;83.71
25855;BME280;13680;49.936;11.344;2023-02-23T06:47:56;96379.97;;;6.95;84.14
25855;BME280;13680;49.936;11.344;2023-02-23T06:50:22;96375.38;;;7.01;84.09
25855;BME280;13680;49.936;11.344;2023-02-23T06:52:47;96381.75;;;7.05;84.05
25855;BME280;13680;49.936;11.344;2023-02-23T06:55:13;96382.81;;;7.04;84.01
25855;BME280;13680;49.936;11.344;2023-02-23T06:57:39;96393.25;;;7.06;84.08
25855;BME280;13680;49.936;11.344;2023-02-23T07:00:06;96390.53;;;7.11;83.96
25855;BME280;13680;49.936;11.344;2023-02-23T07:02:31;96391.66;;;7.04;84.05
25855;BME280;13680;49.936;11.344;2023-02-23T07:04:56;96388.94;;;7.10;83.98
25855;BME280;13680;49.936;11.344;2023-02-23T07:07:23;96392.31;;;7.15;83.64
25855;BME280;13680;49.936;11.344;2023-02-23T07:09:48;96392.03;;;7.17;83.84
25855;BME280;13680;49.936;11.344;2023-02-23T07:12:13;96394.16;;;7.20;83.71
25855;BME280;13680;49.936;11.344;2023-02-23T07:14:39;96401.31;;;7.25;83.33
25855;BME280;13680;49.936;11.344;2023-02-23T07:17:04;96401.88;;;7.21;83.78
25855;BME280;13680;49.936;11.344;2023-02-23T07:19:30;96385.84;;;7.21;83.96
25855;BME280;13680;49.936;11.344;2023-02-23T07:21:56;96392.94;;;7.31;83.74
25855;BME280;13680;49.936;11.344;2023-02-23T07:24:21;96394.19;;;7.39;83.76
25855;BME280;13680;49.936;11.344;2023-02-23T07:26:47;96395.56;;;7.36;84.02
25855;BME280;13680;49.936;11.344;2023-02-23T07:29:13;96400.84;;;7.42;84.11
25855;BME280;13680;49.936;11.344;2023-02-23T07:31:39;96402.84;;;7.50;83.82
25855;BME280;13680;49.936;11.344;2023-02-23T07:34:05;96394.75;;;7.55;83.66
25855;BME280;13680;49.936;11.344;2023-02-23T07:36:31;96407.81;;;7.62;83.84
25855;BME280;13680;49.936;11.344;2023-02-23T07:38:56;96407.22;;;7.65;83.53
25855;BME280;13680;49.936;11.344;2023-02-23T07:41:22;96406.44;;;7.64;83.99
25855;BME280;13680;49.936;11.344;2023-02-23T07:43:47;96403.38;;;7.71;84.03
25855;BME280;13680;49.936;11.344;2023-02-23T07:46:12;96407.88;;;7.76;83.84
25855;BME280;13680;49.936;11.344;2023-02-23T07:48:40;96400.84;;;7.80;83.92
25855;BME280;13680;49.936;11.344;2023-02-23T07:51:11;96404.97;;;7.91;83.80
25855;BME280;13680;49.936;11.344;2023-02-23T07:53:38;96403.00;;;7.97;83.99
25855;BME280;13680;49.936;11.344;2023-02-23T07:56:04;96409.59;;;8.05;83.98
25855;BME280;13680;49.936;11.344;2023-02-23T07:58:30;96394.44;;;8.14;83.99
25855;BME280;13680;49.936;11.344;2023-02-23T08:00:55;96398.13;;;8.18;84.08
25855;BME280;13680;49.936;11.344;2023-02-23T08:03:21;96400.13;;;8.26;83.50
25855;BME280;13680;49.936;11.344;2023-02-23T08:05:46;96405.50;;;8.26;83.21
25855;BME280;13680;49.936;11.344;2023-02-23T08:08:12;96403.72;;;8.35;82.93
25855;BME280;13680;49.936;11.344;2023-02-23T08:10:38;96406.53;;;8.44;83.77
25855;BME280;13680;49.936;11.344;2023-02-23T08:13:04;96403.53;;;8.51;83.81
25855;BME280;13680;49.936;11.344;2023-02-23T08:15:29;96405.59;;;8.54;83.34
25855;BME280;13680;49.936;11.344;2023-02-23T08:17:56;96409.69;;;8.65;83.77
25855;BME280;13680;49.936;11.344;2023-02-23T08:20:22;96410.31;;;8.76;83.29
25855;BME280;13680;49.936;11.344;2023-02-23T08:22:54;96409.31;;;8.86;83.91
25855;BME280;13680;49.936;11.344;2023-02-23T08:25:19;96416.97;;;8.93;83.79
25855;BME280;13680;49.936;11.344;2023-02-23T08:27:45;96414.91;;;8.90;83.86
25855;BME280;13680;49.936;11.344;2023-02-23T08:30:12;96416.19;;;9.06;83.52
25855;BME280;13680;49.936;11.344;2023-02-23T08:32:38;96423.84;;;9.13;84.00
25855;BME280;13680;49.936;11.344;2023-02-23T08:35:04;96419.09;;;9.24;83.81
25855;BME280;13680;49.936;11.344;2023-02-23T08:37:30;96416.88;;;9.40;83.58
25855;BME280;13680;49.936;11.344;2023-02-23T08:39:56;96410.94;;;9.43;83.27
25855;BME280;13680;49.936;11.344;2023-02-23T08:42:21;96415.34;;;9.61;83.54
25855;BME280;13680;49.936;11.344;2023-02-23T08:44:47;96415.63;;;9.74;83.29
25855;BME280;13680;49.936;11.344;2023-02-23T08:47:16;96414.03;;;9.73;83.63
25855;BME280;13680;49.936;11.344;2023-02-23T08:49:45;96412.72;;;9.84;82.75
25855;BME280;13680;49.936;11.344;2023-02-23T08:52:11;96407.63;;;9.96;83.34
25855;BME280;13680;49.936;11.344;2023-02-23T08:54:36;96407.47;;;10.15;82.40
25855;BME280;13680;49.936;11.344;2023-02-23T08:57:01;96402.44;;;10.23;81.74
25855;BME280;13680;49.936;11.344;2023-02-23T08:59:27;96404.66;;;10.43;81.39
25855;BME280;13680;49.936;11.344;2023-02-23T09:01:52;96413.13;;;10.59;81.11
25855;BME280;13680;49.936;11.344;2023-02-23T09:04:17;96414.91;;;10.64;80.87
25855;BME280;13680;49.936;11.344;2023-02-23T09:06:43;96414.69;;;10.83;80.21
25855;BME280;13680;49.936;11.344;2023-02-23T09:09:09;96413.78;;;10.96;80.29
25855;BME280;13680;49.936;11.344;2023-02-23T09:11:34;96417.97;;;11.11;78.92
25855;BME280;13680;49.936;11.344;2023-02-23T09:13:59;96415.59;;;11.10;78.18
25855;BME280;13680;49.936;11.344;2023-02-23T09:16:25;96411.34;;;11.18;78.10
25855;BME280;13680;49.936;11.344;2023-02-23T09:18:50;96412.41;;;11.08;76.83
25855;BME280;13680;49.936;11.344;2023-02-23T09:21:17;96413.38;;;11.12;77.05
25855;BME280;13680;49.936;11.344;2023-02-23T09:23:45;96409.38;;;11.01;76.84
25855;BME280;13680;49.936;11.344;2023-02-23T09:26:12;96406.13;;;11.21;76.40
25855;BME280;13680;49.936;11.344;2023-02-23T09:28:37;96412.50;;;11.34;75.67
25855;BME280;13680;49.936;11.344;2023-02-23T09:31:07;96414.34;;;11.16;76.11
25855;BME280;13680;49.936;11.344;2023-02-23T09:33:33;96411.09;;;11.45;74.44
25855;BME280;13680;49.936;11.344;2023-02-23T09:35:58;96413.50;;;11.07;76.36
25855;BME280;13680;49.936;11.344;2023-02-23T09:38:23;96405.88;;;11.49;74.97
25855;BME280;13680;49.936;11.344;2023-02-23T09:40:53;96409.97;;;11.38;74.70
25855;BME280;13680;49.936;11.344;2023-02-23T09:43:34;96404.63;;;11.55;74.41
25855;BME280;13680;49.936;11.344;2023-02-23T09:46:13;96411.47;;;11.70;74.13
25855;BME280;13680;49.936;11.344;2023-02-23T09:48:43;96405.34;;;12.05;73.94
25855;BME280;13680;49.936;11.344;2023-02-23T09:51:14;96407.38;;;12.17;74.49
25855;BME280;13680;49.936;11.344;2023-02-23T09:53:42;96407.06;;;12.27;73.93
25855;BME280;13680;49.936;11.344;2023-02-23T09:56:37;96406.25;;;12.44;73.96
25855;BME280;13680;49.936;11.344;2023-02-23T09:59:09;96406.38;;;12.56;71.81
25855;BME280;13680;49.936;11.344;2023-02-23T10:04:43;96404.38;;;12.18;73.83
25855;BME280;13680;49.936;11.344;2023-02-23T10:07:18;96404.84;;;12.38;73.19
25855;BME280;13680;49.936;11.344;2023-02-23T10:10:11;96406.28;;;12.09;75.26
25855;BME280;13680;49.936;11.344;2023-02-23T10:15:23;96408.19;;;12.17;75.26
25855;BME280;13680;49.936;11.344;2023-02-23T10:18:10;96414.69;;;12.34;73.81
25855;BME280;13680;49.936;11.344;2023-02-23T10:21:01;96425.00;;;12.32;74.15
25855;BME280;13680;49.936;11.344;2023-02-23T10:23:35;96422.09;;;12.54;72.86
25855;BME280;13680;49.936;11.344;2023-02-23T10:26:04;96415.13;;;12.53;72.66
25855;BME280;13680;49.936;11.344;2023-02-23T10:28:34;96412.06;;;12.72;72.21
25855;BME280;13680;49.936;11.344;2023-02-23T10:31:02;96402.88;;;12.73;72.48
25855;BME280;13680;49.936;11.344;2023-02-23T10:33:37;96410.06;;;12.99;71.69
25855;BME280;13680;49.936;11.344;2023-02-23T10:36:18;96415.28;;;13.13;71.44
25855;BME280;13680;49.936;11.344;2023-02-23T10:38:47;96422.09;;;13.10;71.09
25855;BME280;13680;49.936;11.344;2023-02-23T10:41:13;96416.97;;;13.18;71.02
25855;BME280;13680;49.936;11.344;2023-02-23T10:43:38;96419.16;;;13.33;70.51
25855;BME280;13680;49.936;11.344;2023-02-23T10:46:05;96410.56;;;13.31;70.49
25855;BME280;13680;49.936;11.344;2023-02-23T10:48:36;96414.19;;;13.44;70.22
25855;BME280;13680;49.936;11.344;2023-02-23T10:51:06;96411.97;;;13.46;69.15
25855;BME280;13680;49.936;11.344;2023-02-23T10:53:37;96410.72;;;13.44;69.98
25855;BME280;13680;49.936;11.344;2023-02-23T10:58:46;96419.25;;;13.07;70.45
25855;BME280;13680;49.936;11.344;2023-02-23T11:01:15;96412.22;;;13.15;69.90
25855;BME280;13680;49.936;11.344;2023-02-23T11:03:47;96408.84;;;13.26;70.96
25855;BME280;13680;49.936;11.344;2023-02-23T11:06:38;96416.13;;;13.35;71.21
25855;BME280;13680;49.936;11.344;2023-02-23T11:09:26;96409.75;;;13.39;69.76
25855;BME280;13680;49.936;11.344;2023-02-23T11:12:19;96411.81;;;13.04;71.42
25855;BME280;13680;49.936;11.344;2023-02-23T11:14:53;96401.59;;;13.18;71.59
25855;BME280;13680;49.936;11.344;2023-02-23T11:17:36;96401.41;;;13.23;70.52
25855;BME280;13680;49.936;11.344;2023-02-23T11:20:20;96396.28;;;13.31;70.29
25855;BME280;13680;49.936;11.344;2023-02-23T11:22:47;96404.06;;;13.32;70.14
25855;BME280;13680;49.936;11.344;2023-02-23T11:25:24;96398.75;;;13.15;71.17
25855;BME280;13680;49.936;11.344;2023-02-23T11:27:50;96402.81;;;13.30;70.99
25855;BME280;13680;49.936;11.344;2023-02-23T11:30:22;96400.88;;;13.00;71.13
25855;BME280;13680;49.936;11.344;2023-02-23T11:32:55;96394.44;;;12.75;73.04
25855;BME280;13680;49.936;11.344;2023-02-23T11:37:47;96399.78;;;12.92;72.92
25855;BME280;13680;49.936;11.344;2023-02-23T11:45:18;96381.47;;;12.59;76.08
25855;BME280;13680;49.936;11.344;2023-02-23T11:47:47;96386.03;;;12.68;75.81
25855;BME280;13680;49.936;11.344;2023-02-23T11:52:55;96387.75;;;12.81;75.93
25855;BME280;13680;49.936;11.344;2023-02-23T11:55:22;96382.13;;;13.04;75.94
25855;BME280;13680;49.936;11.344;2023-02-23T11:57:50;96383.97;;;13.12;75.16
25855;BME280;13680;49.936;11.344;2023-02-23T12:00:23;96383.28;;;12.85;75.89
25855;BME280;13680;49.936;11.344;2023-02-23T12:02:52;96383.47;;;12.80;76.10
25855;BME280;13680;49.936;11.344;2023-02-23T12:05:22;96380.09;;;12.92;75.82
25855;BME280;13680;49.936;11.344;2023-02-23T12:07:59;96382.94;;;12.96;76.27
25855;BME280;13680;49.936;11.344;2023-02-23T12:10:33;96381.56;;;13.19;75.29
25855;BME280;13680;49.936;11.344;2023-02-23T12:17:59;96379.03;;;12.75;77.29
25855;BME280;13680;49.936;11.344;2023-02-23T12:20:31;96384.91;;;12.77;76.53
25855;BME280;13680;49.936;11.344;2023-02-23T12:23:04;96378.50;;;12.91;76.63
25855;BME280;13680;49.936;11.344;2023-02-23T12:28:40;96380.72;;;12.98;76.05
25855;BME280;13680;49.936;11.344;2023-02-23T12:31:42;96373.94;;;12.83;77.14
25855;BME280;13680;49.936;11.344;2023-02-23T12:34:17;96378.31;;;12.96;76.13
25855;BME280;13680;49.936;11.344;2023-02-23T12:36:46;96373.38;;;13.07;76.11
25855;BME280;13680;49.936;11.344;2023-02-23T12:41:53;96375.91;;;13.03;76.15
25855;BME280;13680;49.936;11.344;2023-02-23T12:44:51;96372.31;;;12.90;76.57
25855;BME280;13680;49.936;11.344;2023-02-23T12:47:31;96362.06;;;12.75;76.22
25855;BME280;13680;49.936;11.344;2023-02-23T12:50:31;96357.16;;;12.77;76.59
25855;BME280;13680;49.936;11.344;2023-02-23T12:53:20;96364.28;;;12.73;76.43
25855;BME280;13680;49.936;11.344;2023-02-23T12:56:16;96358.50;;;12.53;77.80
25855;BME280;13680;49.936;11.344;2023-02-23T12:59:01;96353.47;;;12.34;78.89
25855;BME280;13680;49.936;11.344;2023-02-23T13:01:38;96354.91;;;12.14;80.38
25855;BME280;13680;49.936;11.344;2023-02-23T13:04:34;96346.09;;;12.61;78.17
25855;BME280;13680;49.936;11.344;2023-02-23T13:07:21;96350.53;;;12.66;78.63
25855;BME280;13680;49.936;11.344;2023-02-23T13:18:23;96351.41;;;12.87;76.40
25855;BME280;13680;49.936;11.344;2023-02-23T13:21:06;96352.19;;;12.88;75.93
25855;BME280;13680;49.936;11.344;2023-02-23T13:26:29;96361.88;;;12.15;78.15
25855;BME280;13680;49.936;11.344;2023-02-23T13:29:00;96357.00;;;12.08;79.10
25855;BME280;13680;49.936;11.344;2023-02-23T13:31:32;96346.28;;;12.47;77.49
25855;BME280;13680;49.936;11.344;2023-02-23T13:34:00;96337.81;;;12.66;77.04
25855;BME280;13680;49.936;11.344;2023-02-23T13:36:28;96343.09;;;12.54;77.10
25855;BME280;13680;49.936;11.344;2023-02-23T13:41:32;96345.88;;;12.10;78.17
25855;BME280;13680;49.936;11.344;2023-02-23T13:46:46;96345.97;;;12.40;75.60
25855;BME280;13680;49.936;11.344;2023-02-23T13:49:37;96342.13;;;12.58;75.10
25855;BME280;13680;49.936;11.344;2023-02-23T13:52:38;96336.50;;;12.34;75.60
25855;BME280;13680;49.936;11.344;2023-02-23T13:57:54;96343.00;;;12.80;73.97
25855;BME280;13680;49.936;11.344;2023-02-23T14:00:22;96333.53;;;12.65;74.20
25855;BME280;13680;49.936;11.344;2023-02-23T14:02:48;96325.63;;;12.60;73.82
25855;BME280;13680;49.936;11.344;2023-02-23T14:05:17;96325.03;;;12.84;73.78
25855;BME280;13680;49.936;11.344;2023-02-23T14:07:47;96331.88;;;12.82;72.90
25855;BME280;13680;49.936;11.344;2023-02-23T14:10:48;96326.75;;;12.98;72.75
25855;BME280;13680;49.936;11.344;2023-02-23T14:15:45;96332.72;;;12.73;72.48
25855;BME280;13680;49.936;11.344;2023-02-23T14:20:56;96327.97;;;12.70;73.09
25855;BME280;13680;49.936;11.344;2023-02-23T14:23:29;96330.78;;;12.83;72.99
25855;BME280;13680;49.936;11.344;2023-02-23T14:26:10;96320.38;;;12.93;73.00
25855;BME280;13680;49.936;11.344;2023-02-23T14:28:38;96322.59;;;13.00;72.67
25855;BME280;13680;49.936;11.344;2023-02-23T14:41:28;96323.75;;;12.90;74.89
25855;BME280;13680;49.936;11.344;2023-02-23T14:44:19;96320.38;;;12.93;74.14
25855;BME280;13680;49.936;11.344;2023-02-23T14:46:53;96324.97;;;13.02;74.42
25855;BME280;13680;49.936;11.344;2023-02-23T14:49:24;96319.75;;;12.97;74.34
25855;BME280;13680;49.936;11.344;2023-02-23T14:51:53;96321.78;;;13.00;74.64